Time;durP1;ratioP1;P1;durP2;ratioP2;P2;SDS_P1;SDS_P2;PMS_P1;PMS_P2;Temp;Humidity;BMP_temperature;BMP_pressure;BME280_temperature;BME280_humidity;BME280_pressure;Samples;Min_cycle;Max_cycle;Signal;HPM_P1;HPM_P2
2021/03/16 00:00:51;;;;;;;14.27;9.53;;;5.30;99.90;;;;;;5104334;27;20457;-75
2021/03/16 00:03:18;;;;;;;19.47;11.20;;;5.30;99.90;;;;;;5106053;27;20552;-74
2021/03/16 00:05:45;;;;;;;15.80;10.70;;;5.30;99.90;;;;;;5107397;27;20817;-76
2021/03/16 00:08:11;;;;;;;25.10;10.00;;;5.30;99.90;;;;;;5104270;27;21056;-75
2021/03/16 00:10:39;;;;;;;38.60;11.10;;;5.20;99.90;;;;;;5102690;27;20467;-74
2021/03/16 00:13:05;;;;;;;12.67;9.80;;;5.30;99.90;;;;;;5106130;27;20553;-74
2021/03/16 00:15:32;;;;;;;14.70;10.00;;;5.30;99.90;;;;;;5105009;27;20461;-75
2021/03/16 00:17:58;;;;;;;26.00;11.13;;;5.30;99.90;;;;;;5103698;27;20950;-74
2021/03/16 00:20:25;;;;;;;17.43;10.30;;;5.30;99.90;;;;;;5103726;27;20872;-75
2021/03/16 00:22:51;;;;;;;22.23;11.87;;;5.20;99.90;;;;;;5105324;27;21118;-76
2021/03/16 00:25:17;;;;;;;14.70;10.50;;;5.30;99.90;;;;;;5104347;27;20544;-76
2021/03/16 00:27:45;;;;;;;19.33;11.13;;;5.30;99.90;;;;;;5103828;27;20493;-73
2021/03/16 00:30:13;;;;;;;21.83;10.30;;;5.30;99.90;;;;;;5103526;27;20466;-73
2021/03/16 00:32:39;;;;;;;28.93;11.73;;;5.30;99.90;;;;;;5104802;27;20952;-74
2021/03/16 00:35:07;;;;;;;18.60;12.23;;;5.40;99.90;;;;;;5103021;27;21039;-75
2021/03/16 00:37:33;;;;;;;14.97;10.60;;;5.30;99.90;;;;;;5103081;27;20509;-76
2021/03/16 00:40:00;;;;;;;11.07;9.97;;;5.30;99.90;;;;;;5103448;27;20461;-74
2021/03/16 00:42:27;;;;;;;21.57;11.83;;;5.40;99.90;;;;;;5104887;27;21096;-76
2021/03/16 00:44:54;;;;;;;15.10;11.27;;;5.40;99.90;;;;;;5103796;27;20504;-76
2021/03/16 00:47:20;;;;;;;17.80;12.90;;;5.50;99.90;;;;;;5100877;27;21018;-75
2021/03/16 00:49:48;;;;;;;16.27;11.70;;;5.50;99.90;;;;;;5102866;27;20462;-74
2021/03/16 00:52:15;;;;;;;11.50;10.80;;;5.60;99.90;;;;;;5102620;27;20546;-75
2021/03/16 00:54:41;;;;;;;12.93;11.53;;;5.70;99.90;;;;;;5104404;27;20546;-76
2021/03/16 00:57:08;;;;;;;22.10;12.60;;;5.70;99.90;;;;;;5105553;27;20471;-75
2021/03/16 00:59:34;;;;;;;15.60;9.53;;;5.60;99.90;;;;;;5102273;27;20462;-76
2021/03/16 01:02:02;;;;;;;21.07;10.90;;;5.60;99.90;;;;;;5101618;27;20457;-76
2021/03/16 01:04:28;;;;;;;15.73;11.60;;;5.50;99.90;;;;;;5104598;27;20501;-76
2021/03/16 01:06:54;;;;;;;18.60;11.20;;;5.60;99.90;;;;;;5104164;27;20580;-73
2021/03/16 01:09:21;;;;;;;22.30;11.00;;;5.60;99.90;;;;;;5103918;27;20811;-76
2021/03/16 01:11:47;;;;;;;15.40;11.40;;;5.50;99.90;;;;;;5104563;27;20903;-77
2021/03/16 01:14:14;;;;;;;12.27;10.50;;;5.50;99.90;;;;;;5104397;27;20469;-75
2021/03/16 01:16:40;;;;;;;14.97;11.30;;;5.40;99.90;;;;;;5101279;27;20999;-75
2021/03/16 01:19:08;;;;;;;16.57;11.17;;;5.40;99.90;;;;;;5103855;27;20543;-75
2021/03/16 01:21:35;;;;;;;18.13;11.77;;;5.50;99.90;;;;;;5104243;27;20457;-75
2021/03/16 01:24:01;;;;;;;17.20;10.47;;;5.50;99.90;;;;;;5103296;27;20525;-76
2021/03/16 01:26:28;;;;;;;12.03;10.83;;;5.40;99.90;;;;;;5100972;27;20471;-73
2021/03/16 01:28:55;;;;;;;12.53;11.23;;;5.40;99.90;;;;;;5102312;27;20515;-75
2021/03/16 01:31:21;;;;;;;18.30;11.63;;;5.50;99.90;;;;;;5102009;27;20470;-74
2021/03/16 01:33:47;;;;;;;18.07;10.63;;;5.50;99.90;;;;;;5103841;27;20526;-72
2021/03/16 01:36:27;;;;;;;22.20;10.70;;;5.50;99.90;;;;;;5103686;27;20522;-76
2021/03/16 01:38:54;;;;;;;12.23;10.50;;;5.50;99.90;;;;;;5101925;27;20456;-73
2021/03/16 01:41:20;;;;;;;14.80;10.17;;;5.50;99.90;;;;;;5103763;27;20614;-72
2021/03/16 01:43:47;;;;;;;13.37;11.30;;;5.40;99.90;;;;;;5101095;27;20910;-75
2021/03/16 01:46:14;;;;;;;14.07;11.37;;;5.30;99.90;;;;;;5102394;27;20560;-76
2021/03/16 01:48:41;;;;;;;10.27;9.20;;;5.20;99.90;;;;;;5103314;27;20480;-72
2021/03/16 01:51:11;;;;;;;18.30;9.93;;;5.20;99.90;;;;;;5100920;28;20552;-75
2021/03/16 01:53:40;;;;;;;16.57;10.83;;;5.20;99.90;;;;;;5102875;27;20591;-75
2021/03/16 01:56:07;;;;;;;17.43;11.20;;;5.20;99.90;;;;;;5101668;27;20471;-73
2021/03/16 01:58:34;;;;;;;25.43;11.40;;;5.10;99.90;;;;;;5101015;27;20472;-75
2021/03/16 02:01:00;;;;;;;28.40;13.53;;;5.10;99.90;;;;;;5104251;27;20460;-73
2021/03/16 02:03:28;;;;;;;19.17;10.40;;;5.20;99.90;;;;;;5105509;27;20452;-73
2021/03/16 02:05:55;;;;;;;23.00;11.23;;;5.10;99.90;;;;;;5103978;27;20464;-73
2021/03/16 02:08:29;;;;;;;31.20;11.23;;;5.20;99.90;;;;;;5102895;27;20498;-74
2021/03/16 02:11:05;;;;;;;20.80;9.37;;;5.20;99.90;;;;;;5101582;27;20468;-72
2021/03/16 02:13:38;;;;;;;25.13;11.57;;;5.20;99.90;;;;;;5102061;27;20876;-73
2021/03/16 02:16:11;;;;;;;20.27;10.20;;;5.10;99.90;;;;;;5103049;27;20804;-73
2021/03/16 02:18:44;;;;;;;22.40;10.37;;;5.10;99.90;;;;;;5103798;27;20469;-75
2021/03/16 02:21:14;;;;;;;10.97;9.10;;;5.20;99.90;;;;;;5103672;27;20456;-73
2021/03/16 02:23:54;;;;;;;21.10;12.00;;;5.20;99.90;;;;;;5104582;27;21118;-76
2021/03/16 02:26:29;;;;;;;26.90;11.53;;;5.10;99.90;;;;;;5101222;27;20460;-74
2021/03/16 02:29:07;;;;;;;23.80;11.47;;;5.10;99.90;;;;;;5100890;28;20523;-71
2021/03/16 02:31:35;;;;;;;11.27;10.33;;;5.10;99.90;;;;;;5100690;27;20510;-74
2021/03/16 02:34:03;;;;;;;32.40;11.13;;;5.00;99.90;;;;;;5101298;28;20543;-75
2021/03/16 02:36:31;;;;;;;12.33;9.80;;;5.00;99.90;;;;;;5102593;28;20912;-76
2021/03/16 02:39:01;;;;;;;17.90;9.73;;;5.00;99.90;;;;;;5102735;28;20465;-73
2021/03/16 02:41:28;;;;;;;9.97;8.70;;;5.00;99.90;;;;;;5105029;28;21256;-75
2021/03/16 02:43:55;;;;;;;18.07;10.60;;;5.10;99.90;;;;;;5101479;28;20526;-75
2021/03/16 02:46:23;;;;;;;20.33;10.10;;;5.00;99.90;;;;;;5101819;28;20461;-74
2021/03/16 02:48:51;;;;;;;14.60;9.90;;;5.00;99.90;;;;;;5101644;28;20488;-72
2021/03/16 02:51:17;;;;;;;23.73;10.70;;;5.00;99.90;;;;;;5099541;28;20485;-73
2021/03/16 02:53:45;;;;;;;26.40;10.97;;;5.00;99.90;;;;;;5102339;28;21118;-72
2021/03/16 02:56:13;;;;;;;21.40;11.33;;;5.10;99.90;;;;;;5101397;28;20468;-75
2021/03/16 02:58:40;;;;;;;21.20;11.17;;;5.00;99.90;;;;;;5102368;28;20975;-75
2021/03/16 03:01:08;;;;;;;12.60;10.30;;;5.00;99.90;;;;;;5100548;28;20567;-73
2021/03/16 03:03:37;;;;;;;31.77;12.47;;;4.90;99.90;;;;;;5100950;28;20460;-73
2021/03/16 03:06:04;;;;;;;21.13;11.60;;;5.00;99.90;;;;;;5106342;27;20461;-72
2021/03/16 03:08:33;;;;;;;16.03;10.07;;;5.00;99.90;;;;;;5105611;27;20494;-75
2021/03/16 03:11:00;;;;;;;25.17;10.50;;;5.00;99.90;;;;;;5104597;27;20458;-73
2021/03/16 03:13:26;;;;;;;23.70;11.47;;;5.00;99.90;;;;;;5106206;27;21472;-75
2021/03/16 03:15:54;;;;;;;12.67;9.10;;;5.00;99.90;;;;;;5106403;27;20448;-74
2021/03/16 03:18:20;;;;;;;11.60;9.77;;;4.90;99.90;;;;;;5105628;27;20614;-76
2021/03/16 03:20:48;;;;;;;22.33;10.13;;;4.90;99.90;;;;;;5106181;27;21042;-74
2021/03/16 03:23:19;;;;;;;12.17;10.83;;;5.00;99.90;;;;;;5105159;27;20564;-75
2021/03/16 03:25:50;;;;;;;14.00;11.70;;;5.00;99.90;;;;;;5106007;27;20548;-73
2021/03/16 03:28:20;;;;;;;38.90;12.27;;;5.00;99.90;;;;;;5102600;28;20488;-73
2021/03/16 03:30:48;;;;;;;22.47;12.27;;;5.00;99.90;;;;;;5105702;27;20458;-75
2021/03/16 03:33:15;;;;;;;13.10;11.53;;;5.00;99.90;;;;;;5106306;27;20511;-73
2021/03/16 03:35:42;;;;;;;19.30;10.53;;;5.00;99.90;;;;;;5106957;27;20545;-75
2021/03/16 03:38:11;;;;;;;27.10;11.03;;;5.10;99.90;;;;;;5106423;27;20857;-74
2021/03/16 03:40:39;;;;;;;28.70;11.70;;;5.10;99.90;;;;;;5107220;27;20923;-75
2021/03/16 03:43:11;;;;;;;22.53;11.47;;;5.10;99.90;;;;;;5105653;27;20472;-73
2021/03/16 03:45:39;;;;;;;21.97;11.13;;;5.10;99.90;;;;;;5102899;27;20468;-76
2021/03/16 03:48:11;;;;;;;19.43;11.10;;;5.20;99.90;;;;;;5105792;27;20591;-75
2021/03/16 03:50:40;;;;;;;22.40;11.40;;;5.10;99.90;;;;;;5106726;27;20459;-76
2021/03/16 03:53:08;;;;;;;14.93;10.13;;;5.10;99.90;;;;;;5105459;27;20472;-76
2021/03/16 03:55:37;;;;;;;19.47;10.50;;;5.00;99.90;;;;;;5105235;27;20472;-74
2021/03/16 03:58:05;;;;;;;24.60;10.47;;;5.00;99.90;;;;;;5104265;27;20568;-73
2021/03/16 04:00:32;;;;;;;18.47;10.93;;;5.00;99.90;;;;;;5105334;27;20465;-76
2021/03/16 04:03:00;;;;;;;14.63;9.60;;;5.00;99.90;;;;;;5103301;27;20470;-74
2021/03/16 04:05:27;;;;;;;22.77;10.73;;;5.00;99.90;;;;;;5107568;27;20749;-74
2021/03/16 04:07:55;;;;;;;28.80;11.33;;;5.00;99.90;;;;;;5107019;27;20615;-73
2021/03/16 04:10:22;;;;;;;16.07;11.27;;;5.00;99.90;;;;;;5102995;27;20471;-73
2021/03/16 04:12:50;;;;;;;22.00;10.93;;;5.00;99.90;;;;;;5102107;27;20460;-74
2021/03/16 04:15:17;;;;;;;28.33;12.03;;;4.90;99.90;;;;;;5103954;27;20458;-73
2021/03/16 04:17:46;;;;;;;19.37;10.53;;;5.00;99.90;;;;;;5103058;27;21064;-72
2021/03/16 04:20:15;;;;;;;15.10;11.47;;;5.00;99.90;;;;;;5104475;27;20469;-74
2021/03/16 04:22:42;;;;;;;12.53;10.97;;;5.00;99.90;;;;;;5105532;27;20466;-75
2021/03/16 04:25:10;;;;;;;19.73;11.93;;;5.00;99.90;;;;;;5103859;27;20528;-74
2021/03/16 04:27:37;;;;;;;22.20;11.87;;;5.00;99.90;;;;;;5104596;27;20497;-75
2021/03/16 04:30:07;;;;;;;21.13;10.93;;;5.00;99.90;;;;;;5104179;27;20470;-76
2021/03/16 04:32:33;;;;;;;15.17;10.93;;;5.00;99.90;;;;;;5102939;27;20941;-74
2021/03/16 04:35:00;;;;;;;28.33;11.80;;;4.90;99.90;;;;;;5104854;27;20471;-73
2021/03/16 04:37:27;;;;;;;16.63;11.50;;;5.00;99.90;;;;;;5105598;27;20874;-74
2021/03/16 04:39:54;;;;;;;23.57;12.23;;;5.00;99.90;;;;;;5103141;27;20464;-74
2021/03/16 04:42:20;;;;;;;17.63;11.63;;;5.00;99.90;;;;;;5102317;27;20492;-75
2021/03/16 04:44:46;;;;;;;28.33;12.83;;;5.10;99.90;;;;;;5102917;27;20477;-74
2021/03/16 04:47:14;;;;;;;23.27;11.37;;;5.10;99.90;;;;;;5102756;27;20953;-75
2021/03/16 04:49:40;;;;;;;18.83;12.30;;;5.10;99.90;;;;;;5102674;27;20981;-75
2021/03/16 04:52:07;;;;;;;26.17;12.43;;;5.20;99.90;;;;;;5103488;27;20582;-74
2021/03/16 04:54:33;;;;;;;14.90;11.33;;;5.10;99.90;;;;;;5105766;27;20463;-75
2021/03/16 04:56:59;;;;;;;22.90;12.90;;;5.10;99.90;;;;;;5102581;27;21562;-74
2021/03/16 04:59:26;;;;;;;23.60;11.20;;;5.10;99.90;;;;;;5102813;27;20472;-72
2021/03/16 05:01:53;;;;;;;19.03;11.67;;;5.00;99.90;;;;;;5103297;27;20843;-76
2021/03/16 05:04:20;;;;;;;42.07;13.27;;;5.00;99.90;;;;;;5102785;27;20454;-75
2021/03/16 05:06:48;;;;;;;28.53;11.80;;;5.00;99.90;;;;;;5104216;27;20489;-73
2021/03/16 05:09:14;;;;;;;19.80;10.90;;;5.00;99.90;;;;;;5106221;27;20946;-74
2021/03/16 05:11:40;;;;;;;22.03;9.70;;;4.90;99.90;;;;;;5105193;27;20859;-74
2021/03/16 05:14:07;;;;;;;23.73;12.57;;;4.90;99.90;;;;;;5102809;27;20460;-74
2021/03/16 05:16:33;;;;;;;33.53;12.77;;;4.90;99.90;;;;;;5102669;27;20481;-75
2021/03/16 05:19:01;;;;;;;17.90;11.07;;;4.90;99.90;;;;;;5105364;27;20457;-75
2021/03/16 05:21:28;;;;;;;13.17;10.33;;;4.90;99.90;;;;;;5104434;27;20453;-73
2021/03/16 05:23:55;;;;;;;13.77;10.03;;;4.90;99.90;;;;;;5105364;27;20461;-75
2021/03/16 05:26:22;;;;;;;18.53;10.97;;;4.90;99.90;;;;;;5101667;27;20464;-73
2021/03/16 05:28:49;;;;;;;29.30;12.80;;;4.90;99.90;;;;;;5101089;28;21045;-76
2021/03/16 05:31:15;;;;;;;30.03;12.20;;;4.90;99.90;;;;;;5102711;27;20475;-76
2021/03/16 05:33:41;;;;;;;19.40;11.30;;;4.90;99.90;;;;;;5102316;27;20453;-72
2021/03/16 05:36:08;;;;;;;19.53;11.57;;;4.90;99.90;;;;;;5104065;27;20462;-74
2021/03/16 05:38:35;;;;;;;18.87;11.13;;;4.90;99.90;;;;;;5101810;27;20498;-74
2021/03/16 05:41:02;;;;;;;19.57;11.60;;;4.90;99.90;;;;;;5102637;27;20465;-74
2021/03/16 05:43:28;;;;;;;14.97;11.20;;;4.90;99.90;;;;;;5103288;27;20465;-75
2021/03/16 05:45:56;;;;;;;20.80;11.77;;;5.00;99.90;;;;;;5105402;27;20466;-73
2021/03/16 05:48:24;;;;;;;17.97;12.43;;;5.10;99.90;;;;;;5099069;27;20485;-75
2021/03/16 05:50:52;;;;;;;12.57;10.63;;;5.10;99.90;;;;;;5101013;27;20492;-73
2021/03/16 05:53:18;;;;;;;19.10;11.33;;;5.10;99.90;;;;;;5101527;27;20461;-74
2021/03/16 05:55:46;;;;;;;25.63;12.23;;;5.10;99.90;;;;;;5101115;27;20460;-73
2021/03/16 05:58:13;;;;;;;21.93;11.77;;;5.10;99.90;;;;;;5098522;27;20930;-73
2021/03/16 06:00:39;;;;;;;40.23;11.50;;;5.10;99.90;;;;;;5099858;27;20556;-72
2021/03/16 06:03:06;;;;;;;16.00;12.40;;;5.10;99.90;;;;;;5101938;28;20457;-75
2021/03/16 06:05:32;;;;;;;16.13;10.93;;;5.10;99.90;;;;;;5104960;27;20511;-74
2021/03/16 06:07:59;;;;;;;24.27;11.93;;;5.10;99.90;;;;;;5101775;27;20608;-74
2021/03/16 06:10:26;;;;;;;13.00;11.77;;;5.10;99.90;;;;;;5102516;27;20873;-75
2021/03/16 06:12:53;;;;;;;13.20;11.83;;;5.10;99.90;;;;;;5102056;27;20465;-75
2021/03/16 06:15:22;;;;;;;17.80;12.47;;;5.10;99.90;;;;;;5100286;27;20465;-75
2021/03/16 06:17:52;;;;;;;16.53;12.90;;;5.10;99.90;;;;;;5100925;27;20575;-73
2021/03/16 06:20:29;;;;;;;18.80;12.97;;;5.00;99.90;;;;;;5101760;27;20487;-75
2021/03/16 06:23:04;;;;;;;23.03;12.73;;;5.00;99.90;;;;;;5101599;27;20556;-75
2021/03/16 06:25:31;;;;;;;20.27;12.83;;;5.10;99.90;;;;;;5101282;27;21015;-75
2021/03/16 06:28:03;;;;;;;16.13;12.27;;;5.10;99.90;;;;;;5101457;28;20482;-74
2021/03/16 06:30:30;;;;;;;15.83;11.80;;;5.20;99.90;;;;;;5104754;27;21012;-74
2021/03/16 06:32:56;;;;;;;30.37;13.93;;;5.30;99.90;;;;;;5101745;27;20850;-73
2021/03/16 06:35:23;;;;;;;22.97;14.30;;;5.30;99.90;;;;;;5102180;28;20471;-72
2021/03/16 06:38:04;;;;;;;25.80;14.47;;;5.50;99.90;;;;;;5100657;28;20971;-76
2021/03/16 06:40:32;;;;;;;19.60;13.90;;;5.40;99.90;;;;;;5103531;28;20971;-74
2021/03/16 06:43:05;;;;;;;23.73;13.90;;;5.40;99.90;;;;;;5103237;28;20953;-76
2021/03/16 06:45:32;;;;;;;21.43;14.83;;;5.50;99.90;;;;;;5100481;28;20462;-75
2021/03/16 06:48:00;;;;;;;20.63;14.97;;;5.50;99.90;;;;;;5102270;28;20563;-75
2021/03/16 06:50:30;;;;;;;30.90;14.87;;;5.40;99.90;;;;;;5100631;28;20459;-74
2021/03/16 06:52:57;;;;;;;37.30;16.13;;;5.40;99.90;;;;;;5100895;28;20818;-73
2021/03/16 06:55:24;;;;;;;19.80;14.93;;;5.40;99.90;;;;;;5101949;28;20495;-75
2021/03/16 06:57:51;;;;;;;26.73;15.30;;;5.40;99.90;;;;;;5103190;28;20462;-73
2021/03/16 07:00:21;;;;;;;17.53;14.57;;;5.50;99.90;;;;;;5102935;28;20956;-74
2021/03/16 07:02:47;;;;;;;25.37;16.20;;;5.50;99.90;;;;;;5099763;28;20610;-75
2021/03/16 07:05:24;;;;;;;35.00;14.77;;;5.60;99.90;;;;;;5099604;28;21009;-72
2021/03/16 07:07:52;;;;;;;25.60;17.23;;;5.80;99.90;;;;;;5099617;27;20496;-72
2021/03/16 07:10:19;;;;;;;38.17;16.43;;;5.70;99.90;;;;;;5100073;28;20555;-75
2021/03/16 07:12:47;;;;;;;20.53;15.50;;;5.70;99.90;;;;;;5100702;28;20550;-73
2021/03/16 07:15:16;;;;;;;23.60;15.40;;;5.80;99.90;;;;;;5101135;28;20465;-74
2021/03/16 07:17:43;;;;;;;32.27;18.10;;;5.90;99.90;;;;;;5101885;28;20560;-72
2021/03/16 07:20:11;;;;;;;23.07;17.33;;;6.00;99.90;;;;;;5100260;28;20876;-74
2021/03/16 07:22:45;;;;;;;30.53;18.73;;;6.10;99.90;;;;;;5099850;28;20466;-75
2021/03/16 07:25:13;;;;;;;33.23;17.47;;;6.10;99.90;;;;;;5101188;28;20468;-74
2021/03/16 07:27:41;;;;;;;35.30;18.83;;;6.30;99.90;;;;;;5102936;28;20515;-75
2021/03/16 07:30:09;;;;;;;36.63;19.60;;;6.30;99.90;;;;;;5101806;28;20464;-73
2021/03/16 07:32:36;;;;;;;32.33;20.67;;;6.60;99.90;;;;;;5101032;28;20486;-73
2021/03/16 07:35:04;;;;;;;29.73;19.70;;;6.70;99.90;;;;;;5100039;28;20475;-74
2021/03/16 07:37:31;;;;;;;27.43;19.63;;;6.60;99.90;;;;;;5102090;28;20493;-73
2021/03/16 07:40:02;;;;;;;50.47;21.70;;;6.60;99.90;;;;;;5102256;28;20988;-76
2021/03/16 07:42:29;;;;;;;24.67;18.30;;;6.70;99.90;;;;;;5102715;28;20514;-71
2021/03/16 07:44:56;;;;;;;29.07;16.70;;;6.80;99.90;;;;;;5100898;28;20463;-74
2021/03/16 07:47:33;;;;;;;18.57;16.37;;;6.70;99.90;;;;;;5104800;28;21061;-76
2021/03/16 07:50:06;;;;;;;23.37;17.67;;;6.50;99.90;;;;;;5100492;28;20502;-77
2021/03/16 07:52:44;;;;;;;24.60;17.67;;;6.50;99.90;;;;;;5104372;27;20470;-76
2021/03/16 07:55:12;;;;;;;22.90;15.20;;;6.30;99.90;;;;;;5105802;27;20460;-75
2021/03/16 07:57:39;;;;;;;22.83;15.83;;;6.30;99.90;;;;;;5104410;27;21007;-74
2021/03/16 08:00:07;;;;;;;21.40;14.30;;;6.30;99.90;;;;;;5104993;27;20542;-76
2021/03/16 08:02:35;;;;;;;16.93;13.60;;;6.30;99.90;;;;;;5103718;27;20491;-77
2021/03/16 08:05:02;;;;;;;13.90;12.60;;;6.30;99.90;;;;;;5100304;27;20472;-75
2021/03/16 08:07:31;;;;;;;18.53;13.70;;;6.30;99.90;;;;;;5104156;27;20487;-74
2021/03/16 08:09:58;;;;;;;14.60;13.47;;;6.30;99.90;;;;;;5104940;27;20510;-76
2021/03/16 08:12:26;;;;;;;15.50;14.10;;;6.30;99.90;;;;;;5103742;27;21043;-75
2021/03/16 08:14:53;;;;;;;16.40;13.87;;;6.30;99.90;;;;;;5104997;27;20492;-76
2021/03/16 08:17:26;;;;;;;16.20;14.60;;;6.30;99.90;;;;;;5104830;27;20565;-76
2021/03/16 08:19:53;;;;;;;19.90;15.27;;;6.50;99.90;;;;;;5103950;27;20859;-75
2021/03/16 08:22:21;;;;;;;15.90;14.40;;;6.50;99.90;;;;;;5104022;27;20571;-77
2021/03/16 08:24:50;;;;;;;16.30;15.00;;;6.70;99.90;;;;;;5103880;27;20456;-75
2021/03/16 08:27:17;;;;;;;17.13;15.63;;;6.80;99.90;;;;;;5104898;27;20454;-76
2021/03/16 08:29:45;;;;;;;19.80;15.00;;;7.10;99.90;;;;;;5105229;27;20493;-77
2021/03/16 08:32:14;;;;;;;22.77;16.10;;;7.10;99.90;;;;;;5103644;27;20526;-73
2021/03/16 08:34:42;;;;;;;21.50;17.87;;;7.30;99.90;;;;;;5102587;27;20464;-75
2021/03/16 08:37:19;;;;;;;18.20;16.33;;;7.40;99.90;;;;;;5104181;27;20456;-78
2021/03/16 08:39:46;;;;;;;22.20;16.23;;;7.40;99.90;;;;;;5104925;27;20472;-76
2021/03/16 08:42:18;;;;;;;17.80;16.43;;;7.60;99.90;;;;;;5104335;27;20555;-75
2021/03/16 08:44:45;;;;;;;21.33;17.47;;;7.90;99.90;;;;;;5100012;27;20492;-78
2021/03/16 08:47:13;;;;;;;22.93;16.80;;;8.10;99.90;;;;;;5094310;27;20844;-77
2021/03/16 08:49:41;;;;;;;18.00;16.07;;;8.20;99.90;;;;;;5098990;27;20499;-74
2021/03/16 08:52:17;;;;;;;23.73;18.43;;;8.10;99.90;;;;;;5105354;27;20467;-77
2021/03/16 08:54:43;;;;;;;19.57;16.87;;;7.90;99.90;;;;;;5105566;27;20989;-75
2021/03/16 08:57:11;;;;;;;18.50;16.67;;;8.00;99.90;;;;;;5103548;27;20556;-75
2021/03/16 08:59:39;;;;;;;19.13;18.13;;;7.90;99.90;;;;;;5103209;27;20972;-78
2021/03/16 09:02:05;;;;;;;18.73;16.87;;;7.80;99.90;;;;;;5102339;27;20461;-77
2021/03/16 09:04:35;;;;;;;22.80;15.50;;;7.80;99.90;;;;;;5104443;27;20553;-73
2021/03/16 09:07:01;;;;;;;17.80;15.93;;;7.80;99.90;;;;;;5105643;27;20551;-75
2021/03/16 09:09:31;;;;;;;23.50;16.83;;;7.70;99.90;;;;;;5108753;27;20840;-77
2021/03/16 09:11:58;;;;;;;18.13;16.50;;;7.70;99.90;;;;;;5105776;27;21018;-78
2021/03/16 09:14:25;;;;;;;15.33;14.40;;;7.70;99.90;;;;;;5109401;27;20492;-76
2021/03/16 09:16:53;;;;;;;17.07;15.40;;;7.70;99.90;;;;;;5107998;27;20532;-74
2021/03/16 09:19:22;;;;;;;17.47;15.97;;;7.70;99.90;;;;;;5108814;27;20462;-76
2021/03/16 09:21:53;;;;;;;16.93;15.33;;;7.60;99.90;;;;;;5108793;27;20464;-74
2021/03/16 09:24:22;;;;;;;31.87;17.37;;;7.70;99.90;;;;;;5108830;27;20555;-74
2021/03/16 09:26:59;;;;;;;18.97;16.27;;;7.70;99.90;;;;;;5107832;27;20644;-75
2021/03/16 09:29:29;;;;;;;17.77;16.17;;;7.80;99.90;;;;;;5108475;27;20487;-76
2021/03/16 09:31:58;;;;;;;18.13;16.43;;;7.70;99.90;;;;;;5107856;27;20455;-77
2021/03/16 09:34:25;;;;;;;16.80;15.40;;;7.70;99.90;;;;;;5108604;27;20510;-74
2021/03/16 09:37:00;;;;;;;25.80;23.60;;;7.80;99.90;;;;;;5108635;27;20464;-76
2021/03/16 09:39:26;;;;;;;16.70;14.90;;;7.70;99.90;;;;;;5108502;27;20458;-73
2021/03/16 09:41:54;;;;;;;14.33;13.27;;;7.50;99.90;;;;;;5109184;27;20471;-73
2021/03/16 09:44:33;;;;;;;15.30;14.50;;;7.30;99.90;;;;;;5106953;27;20552;-76
2021/03/16 09:47:01;;;;;;;17.73;15.03;;;7.20;99.90;;;;;;5101587;27;20454;-75
2021/03/16 09:49:32;;;;;;;15.90;14.57;;;7.30;99.90;;;;;;5107286;27;20492;-76
2021/03/16 09:52:04;;;;;;;13.90;13.10;;;7.20;99.90;;;;;;5107543;27;20463;-76
2021/03/16 09:54:39;;;;;;;15.67;14.67;;;7.70;99.90;;;;;;5108322;27;20468;-75
2021/03/16 09:57:08;;;;;;;17.37;15.80;;;8.40;99.90;;;;;;5106664;27;20460;-76
2021/03/16 09:59:39;;;;;;;17.73;16.03;;;8.60;99.90;;;;;;5108450;27;21040;-77
2021/03/16 10:02:08;;;;;;;16.67;15.57;;;8.60;99.90;;;;;;5107886;27;20831;-76
2021/03/16 10:04:46;;;;;;;16.20;15.00;;;9.00;99.90;;;;;;5108061;27;20468;-76
2021/03/16 10:07:23;;;;;;;17.13;15.90;;;9.40;99.90;;;;;;5108027;27;20488;-76
2021/03/16 10:09:49;;;;;;;17.40;16.07;;;9.20;99.90;;;;;;5106629;27;20495;-73
2021/03/16 10:12:17;;;;;;;18.47;16.50;;;9.30;99.90;;;;;;5108312;27;20946;-74
2021/03/16 10:14:44;;;;;;;17.20;16.10;;;9.00;99.90;;;;;;5107742;27;20464;-74
2021/03/16 10:17:12;;;;;;;18.90;16.80;;;8.90;99.90;;;;;;5107860;27;20476;-74
2021/03/16 10:19:39;;;;;;;20.10;17.13;;;8.80;99.90;;;;;;5108325;27;20532;-72
2021/03/16 10:22:12;;;;;;;18.03;16.60;;;8.70;99.90;;;;;;5107500;27;20462;-74
2021/03/16 10:24:38;;;;;;;17.37;16.07;;;8.70;99.90;;;;;;5107477;27;20552;-73
2021/03/16 10:27:05;;;;;;;18.60;16.10;;;8.80;99.90;;;;;;5106626;27;20468;-73
2021/03/16 10:29:37;;;;;;;17.30;15.90;;;9.00;99.90;;;;;;5107224;28;20595;-73
2021/03/16 10:32:04;;;;;;;17.40;16.03;;;9.40;99.90;;;;;;5107128;28;20557;-73
2021/03/16 10:34:31;;;;;;;17.20;15.70;;;9.70;99.90;;;;;;5108131;27;20456;-72
2021/03/16 10:36:59;;;;;;;16.43;15.23;;;10.00;99.90;;;;;;5108168;27;20877;-74
2021/03/16 10:39:25;;;;;;;17.73;16.30;;;10.10;99.90;;;;;;5107439;28;21015;-76
2021/03/16 10:41:51;;;;;;;17.00;15.33;;;10.00;99.90;;;;;;5106582;28;20529;-76
2021/03/16 10:44:18;;;;;;;17.80;16.50;;;10.10;99.90;;;;;;5106846;28;20467;-74
2021/03/16 10:46:45;;;;;;;15.53;14.67;;;10.10;99.90;;;;;;5105995;28;20457;-72
2021/03/16 10:49:11;;;;;;;17.13;15.60;;;9.80;99.90;;;;;;5107353;28;20607;-76
2021/03/16 10:51:39;;;;;;;17.30;16.00;;;9.70;99.90;;;;;;5108066;28;20469;-76
2021/03/16 10:54:06;;;;;;;16.60;15.00;;;10.00;99.90;;;;;;5106371;28;20543;-77
2021/03/16 10:56:33;;;;;;;17.80;16.40;;;10.10;99.90;;;;;;5107414;28;20471;-73
2021/03/16 10:58:59;;;;;;;18.23;16.60;;;9.90;99.90;;;;;;5104967;28;20464;-72
2021/03/16 11:01:28;;;;;;;17.73;15.97;;;10.00;99.90;;;;;;5107547;28;20842;-75
2021/03/16 11:03:54;;;;;;;18.70;16.80;;;9.80;99.90;;;;;;5106491;28;20503;-76
2021/03/16 11:06:22;;;;;;;18.37;17.03;;;9.50;99.90;;;;;;5104000;28;20551;-73
2021/03/16 11:08:49;;;;;;;18.80;17.20;;;9.50;99.90;;;;;;5104396;28;20498;-73
2021/03/16 11:11:15;;;;;;;20.23;16.40;;;9.90;99.90;;;;;;5106920;28;20460;-75
2021/03/16 11:13:42;;;;;;;17.03;15.63;;;10.40;99.90;;;;;;5108001;28;20560;-77
2021/03/16 11:16:08;;;;;;;18.20;17.00;;;10.80;99.90;;;;;;5106773;28;20469;-73
2021/03/16 11:18:34;;;;;;;19.33;17.27;;;11.20;99.90;;;;;;5106655;28;20472;-74
2021/03/16 11:21:01;;;;;;;16.27;15.17;;;11.10;99.90;;;;;;5105815;28;20461;-73
2021/03/16 11:23:27;;;;;;;18.53;16.27;;;11.20;99.90;;;;;;5104187;28;20890;-75
2021/03/16 11:25:54;;;;;;;17.50;16.23;;;10.80;99.90;;;;;;5106850;27;20464;-73
2021/03/16 11:28:21;;;;;;;17.07;15.63;;;10.80;99.90;;;;;;5109342;27;20477;-74
2021/03/16 11:30:47;;;;;;;18.70;16.60;;;10.70;99.90;;;;;;5111235;27;20576;-75
2021/03/16 11:33:14;;;;;;;18.17;16.70;;;10.70;99.90;;;;;;5115941;27;20519;-73
2021/03/16 11:35:40;;;;;;;17.23;16.10;;;11.00;99.90;;;;;;5112570;27;20951;-73
2021/03/16 11:38:06;;;;;;;18.30;16.80;;;10.90;99.90;;;;;;5115268;27;20482;-72
2021/03/16 11:40:33;;;;;;;24.00;21.90;;;10.60;99.90;;;;;;5116564;27;20503;-72
2021/03/16 11:43:01;;;;;;;24.20;22.03;;;10.20;99.90;;;;;;5116114;27;20464;-73
2021/03/16 11:45:27;;;;;;;25.07;22.87;;;9.40;99.90;;;;;;5114525;27;20464;-72
2021/03/16 11:47:54;;;;;;;33.67;30.20;;;8.70;99.90;;;;;;5113492;27;20561;-80
2021/03/16 11:50:20;;;;;;;22.07;20.47;;;7.40;99.90;;;;;;5113985;27;20496;-79
2021/03/16 11:52:47;;;;;;;18.00;16.90;;;5.50;99.90;;;;;;5112287;27;20465;-79
2021/03/16 11:55:15;;;;;;;15.97;15.10;;;5.20;99.90;;;;;;5114699;27;20475;-82
2021/03/16 11:57:41;;;;;;;15.27;14.47;;;5.40;99.90;;;;;;5116842;27;20623;-78
2021/03/16 12:00:10;;;;;;;14.27;13.57;;;5.50;99.90;;;;;;5111048;27;21039;-80
2021/03/16 12:02:36;;;;;;;14.37;13.67;;;5.60;99.90;;;;;;5109436;27;20457;-79
2021/03/16 12:05:06;;;;;;;13.97;13.37;;;5.70;99.90;;;;;;5112972;27;20452;-81
2021/03/16 12:07:33;;;;;;;14.00;13.40;;;5.60;99.90;;;;;;5112148;27;20484;-82
2021/03/16 12:10:00;;;;;;;13.70;13.10;;;5.40;99.90;;;;;;5110652;27;21194;-80
2021/03/16 12:12:26;;;;;;;12.63;12.13;;;5.40;99.90;;;;;;5110616;27;20547;-80
2021/03/16 12:14:53;;;;;;;13.60;13.00;;;5.30;99.90;;;;;;5107688;27;20460;-79
2021/03/16 12:17:20;;;;;;;14.07;13.47;;;5.30;99.90;;;;;;5106207;27;20492;-82
2021/03/16 12:19:47;;;;;;;13.83;13.23;;;5.30;99.90;;;;;;5104422;27;20473;-80
2021/03/16 12:22:14;;;;;;;13.97;13.37;;;5.40;99.90;;;;;;5104932;27;20545;-79
2021/03/16 12:24:40;;;;;;;14.30;13.70;;;5.50;99.90;;;;;;5105618;27;20513;-77
2021/03/16 12:27:07;;;;;;;13.20;12.60;;;5.70;99.90;;;;;;5104397;27;20462;-77
2021/03/16 12:29:33;;;;;;;13.20;12.60;;;5.90;99.90;;;;;;5105909;27;20488;-77
2021/03/16 12:32:00;;;;;;;13.37;12.77;;;5.90;99.90;;;;;;5101935;27;20530;-77
2021/03/16 12:34:27;;;;;;;13.47;12.87;;;6.20;99.90;;;;;;5103968;27;20459;-76
2021/03/16 12:36:53;;;;;;;12.03;11.53;;;6.30;99.90;;;;;;5102588;27;20540;-76
2021/03/16 12:39:20;;;;;;;11.13;10.73;;;6.70;99.90;;;;;;5102165;27;20466;-76